sensor_id;sensor_type;location;lat;lon;timestamp;P1;durP1;ratioP1;P2;durP2;ratioP2
8066;SDS011;4076;48.076;9.118;2023-04-19T00:00:33;22.20;;;15.03;;
8066;SDS011;4076;48.076;9.118;2023-04-19T00:02:59;22.17;;;14.80;;
8066;SDS011;4076;48.076;9.118;2023-04-19T00:05:26;22.93;;;15.87;;
8066;SDS011;4076;48.076;9.118;2023-04-19T00:07:55;19.67;;;12.00;;
8066;SDS011;4076;48.076;9.118;2023-04-19T00:10:21;24.03;;;16.83;;
8066;SDS011;4076;48.076;9.118;2023-04-19T00:12:46;23.80;;;17.53;;
8066;SDS011;4076;48.076;9.118;2023-04-19T00:15:12;22.10;;;14.77;;
8066;SDS011;4076;48.076;9.118;2023-04-19T00:17:38;21.47;;;14.50;;
8066;SDS011;4076;48.076;9.118;2023-04-19T00:20:04;48.50;;;34.13;;
8066;SDS011;4076;48.076;9.118;2023-04-19T00:22:30;23.60;;;16.27;;
8066;SDS011;4076;48.076;9.118;2023-04-19T00:24:56;19.17;;;13.17;;
8066;SDS011;4076;48.076;9.118;2023-04-19T00:27:21;26.00;;;20.27;;
8066;SDS011;4076;48.076;9.118;2023-04-19T00:29:47;29.03;;;22.33;;
8066;SDS011;4076;48.076;9.118;2023-04-19T00:32:13;22.80;;;15.73;;
8066;SDS011;4076;48.076;9.118;2023-04-19T00:34:39;24.23;;;15.00;;
8066;SDS011;4076;48.076;9.118;2023-04-19T00:37:05;18.83;;;13.00;;
8066;SDS011;4076;48.076;9.118;2023-04-19T00:39:30;18.30;;;11.70;;
8066;SDS011;4076;48.076;9.118;2023-04-19T00:41:56;26.47;;;14.23;;
8066;SDS011;4076;48.076;9.118;2023-04-19T00:44:22;22.87;;;16.23;;
8066;SDS011;4076;48.076;9.118;2023-04-19T00:46:48;22.40;;;12.40;;
8066;SDS011;4076;48.076;9.118;2023-04-19T00:49:14;15.43;;;11.47;;
8066;SDS011;4076;48.076;9.118;2023-04-19T00:51:41;20.13;;;14.10;;
8066;SDS011;4076;48.076;9.118;2023-04-19T00:54:07;18.00;;;12.17;;
8066;SDS011;4076;48.076;9.118;2023-04-19T00:56:33;18.70;;;11.77;;
8066;SDS011;4076;48.076;9.118;2023-04-19T00:58:59;18.53;;;13.13;;
8066;SDS011;4076;48.076;9.118;2023-04-19T01:01:25;21.40;;;14.37;;
8066;SDS011;4076;48.076;9.118;2023-04-19T01:03:51;17.83;;;10.37;;
8066;SDS011;4076;48.076;9.118;2023-04-19T01:06:17;14.77;;;10.40;;
8066;SDS011;4076;48.076;9.118;2023-04-19T01:08:43;17.67;;;10.93;;
8066;SDS011;4076;48.076;9.118;2023-04-19T01:11:08;14.50;;;10.80;;
8066;SDS011;4076;48.076;9.118;2023-04-19T01:13:34;15.33;;;11.20;;
8066;SDS011;4076;48.076;9.118;2023-04-19T01:16:00;23.93;;;13.13;;
8066;SDS011;4076;48.076;9.118;2023-04-19T01:18:25;15.47;;;12.63;;
8066;SDS011;4076;48.076;9.118;2023-04-19T01:20:56;15.73;;;10.90;;
8066;SDS011;4076;48.076;9.118;2023-04-19T01:23:23;17.33;;;9.77;;
8066;SDS011;4076;48.076;9.118;2023-04-19T01:25:48;19.50;;;11.33;;
8066;SDS011;4076;48.076;9.118;2023-04-19T01:28:14;17.23;;;11.43;;
8066;SDS011;4076;48.076;9.118;2023-04-19T01:30:40;17.30;;;11.50;;
8066;SDS011;4076;48.076;9.118;2023-04-19T01:33:05;16.10;;;10.83;;
8066;SDS011;4076;48.076;9.118;2023-04-19T01:35:31;17.07;;;10.67;;
8066;SDS011;4076;48.076;9.118;2023-04-19T01:37:57;18.70;;;11.90;;
8066;SDS011;4076;48.076;9.118;2023-04-19T01:40:23;17.50;;;11.33;;
8066;SDS011;4076;48.076;9.118;2023-04-19T01:42:49;15.97;;;9.50;;
8066;SDS011;4076;48.076;9.118;2023-04-19T01:45:15;15.50;;;10.60;;
8066;SDS011;4076;48.076;9.118;2023-04-19T01:47:41;14.83;;;11.20;;
8066;SDS011;4076;48.076;9.118;2023-04-19T01:50:07;17.63;;;11.27;;
8066;SDS011;4076;48.076;9.118;2023-04-19T01:52:33;17.90;;;12.20;;
8066;SDS011;4076;48.076;9.118;2023-04-19T01:54:59;15.83;;;11.43;;
8066;SDS011;4076;48.076;9.118;2023-04-19T01:57:24;17.93;;;11.40;;
8066;SDS011;4076;48.076;9.118;2023-04-19T01:59:51;17.10;;;10.50;;
8066;SDS011;4076;48.076;9.118;2023-04-19T02:02:19;14.17;;;10.00;;
8066;SDS011;4076;48.076;9.118;2023-04-19T02:04:45;21.43;;;12.60;;
8066;SDS011;4076;48.076;9.118;2023-04-19T02:07:11;15.30;;;9.73;;
8066;SDS011;4076;48.076;9.118;2023-04-19T02:09:37;18.53;;;10.63;;
8066;SDS011;4076;48.076;9.118;2023-04-19T02:12:03;14.70;;;8.60;;
8066;SDS011;4076;48.076;9.118;2023-04-19T02:14:29;15.47;;;11.50;;
8066;SDS011;4076;48.076;9.118;2023-04-19T02:16:56;18.43;;;12.40;;
8066;SDS011;4076;48.076;9.118;2023-04-19T02:19:22;15.10;;;10.70;;
8066;SDS011;4076;48.076;9.118;2023-04-19T02:21:47;14.07;;;8.43;;
8066;SDS011;4076;48.076;9.118;2023-04-19T02:24:13;15.40;;;10.77;;
8066;SDS011;4076;48.076;9.118;2023-04-19T02:26:39;15.80;;;10.23;;
8066;SDS011;4076;48.076;9.118;2023-04-19T02:29:05;16.43;;;9.67;;
8066;SDS011;4076;48.076;9.118;2023-04-19T02:31:31;18.13;;;12.57;;
8066;SDS011;4076;48.076;9.118;2023-04-19T02:33:57;16.20;;;9.73;;
8066;SDS011;4076;48.076;9.118;2023-04-19T02:36:22;16.60;;;11.73;;
8066;SDS011;4076;48.076;9.118;2023-04-19T02:38:48;18.90;;;12.40;;
8066;SDS011;4076;48.076;9.118;2023-04-19T02:41:13;17.00;;;11.77;;
8066;SDS011;4076;48.076;9.118;2023-04-19T02:43:39;15.50;;;11.80;;
8066;SDS011;4076;48.076;9.118;2023-04-19T02:46:05;17.40;;;10.40;;
8066;SDS011;4076;48.076;9.118;2023-04-19T02:48:31;18.37;;;10.30;;
8066;SDS011;4076;48.076;9.118;2023-04-19T02:50:56;16.40;;;12.00;;
8066;SDS011;4076;48.076;9.118;2023-04-19T02:53:23;21.47;;;12.17;;
8066;SDS011;4076;48.076;9.118;2023-04-19T02:55:48;18.53;;;11.63;;
8066;SDS011;4076;48.076;9.118;2023-04-19T02:58:14;21.67;;;12.77;;
8066;SDS011;4076;48.076;9.118;2023-04-19T03:00:40;20.47;;;13.83;;
8066;SDS011;4076;48.076;9.118;2023-04-19T03:03:06;19.83;;;11.70;;
8066;SDS011;4076;48.076;9.118;2023-04-19T03:05:32;16.40;;;10.57;;
8066;SDS011;4076;48.076;9.118;2023-04-19T03:07:57;17.23;;;13.37;;
8066;SDS011;4076;48.076;9.118;2023-04-19T03:10:23;19.97;;;13.23;;
8066;SDS011;4076;48.076;9.118;2023-04-19T03:12:49;21.80;;;14.33;;
8066;SDS011;4076;48.076;9.118;2023-04-19T03:15:14;23.60;;;14.60;;
8066;SDS011;4076;48.076;9.118;2023-04-19T03:17:40;19.47;;;11.67;;
8066;SDS011;4076;48.076;9.118;2023-04-19T03:20:06;18.90;;;12.87;;
8066;SDS011;4076;48.076;9.118;2023-04-19T03:22:35;24.20;;;13.57;;
8066;SDS011;4076;48.076;9.118;2023-04-19T03:25:02;20.30;;;13.20;;
8066;SDS011;4076;48.076;9.118;2023-04-19T03:27:28;20.50;;;14.00;;
8066;SDS011;4076;48.076;9.118;2023-04-19T03:29:54;17.20;;;12.03;;
8066;SDS011;4076;48.076;9.118;2023-04-19T03:32:20;17.27;;;12.30;;
8066;SDS011;4076;48.076;9.118;2023-04-19T03:34:46;20.43;;;13.67;;
8066;SDS011;4076;48.076;9.118;2023-04-19T03:37:11;18.27;;;11.70;;
8066;SDS011;4076;48.076;9.118;2023-04-19T03:39:37;20.80;;;13.00;;
8066;SDS011;4076;48.076;9.118;2023-04-19T03:42:03;20.20;;;12.57;;
8066;SDS011;4076;48.076;9.118;2023-04-19T03:44:31;18.47;;;12.77;;
8066;SDS011;4076;48.076;9.118;2023-04-19T03:46:57;18.60;;;11.67;;
8066;SDS011;4076;48.076;9.118;2023-04-19T03:49:23;17.73;;;12.50;;
8066;SDS011;4076;48.076;9.118;2023-04-19T03:51:49;17.87;;;11.40;;
8066;SDS011;4076;48.076;9.118;2023-04-19T03:54:14;16.30;;;12.00;;
8066;SDS011;4076;48.076;9.118;2023-04-19T03:56:40;18.17;;;12.67;;
8066;SDS011;4076;48.076;9.118;2023-04-19T03:59:06;17.30;;;11.23;;
8066;SDS011;4076;48.076;9.118;2023-04-19T04:01:32;20.10;;;12.80;;
8066;SDS011;4076;48.076;9.118;2023-04-19T04:03:58;18.90;;;12.03;;
8066;SDS011;4076;48.076;9.118;2023-04-19T04:06:24;20.90;;;11.70;;
8066;SDS011;4076;48.076;9.118;2023-04-19T04:08:50;15.50;;;11.40;;
8066;SDS011;4076;48.076;9.118;2023-04-19T04:11:16;19.83;;;12.43;;
8066;SDS011;4076;48.076;9.118;2023-04-19T04:13:42;16.03;;;10.97;;
8066;SDS011;4076;48.076;9.118;2023-04-19T04:16:07;17.63;;;12.03;;
8066;SDS011;4076;48.076;9.118;2023-04-19T04:18:33;19.00;;;11.10;;
8066;SDS011;4076;48.076;9.118;2023-04-19T04:20:59;29.17;;;15.40;;
8066;SDS011;4076;48.076;9.118;2023-04-19T04:23:24;18.53;;;12.60;;
8066;SDS011;4076;48.076;9.118;2023-04-19T04:25:57;33.70;;;21.03;;
8066;SDS011;4076;48.076;9.118;2023-04-19T04:28:24;33.80;;;21.90;;
8066;SDS011;4076;48.076;9.118;2023-04-19T04:30:51;37.60;;;26.70;;
8066;SDS011;4076;48.076;9.118;2023-04-19T04:33:16;32.27;;;22.20;;
8066;SDS011;4076;48.076;9.118;2023-04-19T04:35:42;44.00;;;26.77;;
8066;SDS011;4076;48.076;9.118;2023-04-19T04:38:08;32.67;;;17.97;;
8066;SDS011;4076;48.076;9.118;2023-04-19T04:40:33;29.57;;;18.20;;
8066;SDS011;4076;48.076;9.118;2023-04-19T04:42:59;32.43;;;21.00;;
8066;SDS011;4076;48.076;9.118;2023-04-19T04:45:28;37.27;;;22.83;;
8066;SDS011;4076;48.076;9.118;2023-04-19T04:47:54;34.60;;;24.43;;
8066;SDS011;4076;48.076;9.118;2023-04-19T04:50:19;34.33;;;24.30;;
8066;SDS011;4076;48.076;9.118;2023-04-19T04:52:45;27.53;;;18.30;;
8066;SDS011;4076;48.076;9.118;2023-04-19T04:55:10;34.50;;;19.60;;
8066;SDS011;4076;48.076;9.118;2023-04-19T04:57:36;24.37;;;17.27;;
8066;SDS011;4076;48.076;9.118;2023-04-19T05:00:02;33.17;;;21.80;;
8066;SDS011;4076;48.076;9.118;2023-04-19T05:02:30;36.97;;;22.03;;
8066;SDS011;4076;48.076;9.118;2023-04-19T05:04:56;27.13;;;14.97;;
8066;SDS011;4076;48.076;9.118;2023-04-19T05:07:22;24.43;;;16.10;;
8066;SDS011;4076;48.076;9.118;2023-04-19T05:09:47;22.20;;;15.50;;
8066;SDS011;4076;48.076;9.118;2023-04-19T05:12:13;20.43;;;14.67;;
8066;SDS011;4076;48.076;9.118;2023-04-19T05:14:39;22.13;;;14.60;;
8066;SDS011;4076;48.076;9.118;2023-04-19T05:17:04;24.13;;;15.57;;
8066;SDS011;4076;48.076;9.118;2023-04-19T05:19:30;20.70;;;13.67;;
8066;SDS011;4076;48.076;9.118;2023-04-19T05:21:55;20.70;;;13.60;;
8066;SDS011;4076;48.076;9.118;2023-04-19T05:24:21;26.13;;;20.03;;
8066;SDS011;4076;48.076;9.118;2023-04-19T05:26:47;27.33;;;21.77;;
8066;SDS011;4076;48.076;9.118;2023-04-19T05:29:12;23.03;;;16.03;;
8066;SDS011;4076;48.076;9.118;2023-04-19T05:31:38;25.90;;;19.27;;
8066;SDS011;4076;48.076;9.118;2023-04-19T05:34:04;20.33;;;15.00;;
8066;SDS011;4076;48.076;9.118;2023-04-19T05:36:29;21.67;;;13.70;;
8066;SDS011;4076;48.076;9.118;2023-04-19T05:38:56;28.07;;;17.40;;
8066;SDS011;4076;48.076;9.118;2023-04-19T05:41:21;25.87;;;15.47;;
8066;SDS011;4076;48.076;9.118;2023-04-19T05:43:47;22.90;;;14.63;;
8066;SDS011;4076;48.076;9.118;2023-04-19T05:46:13;21.43;;;15.27;;
8066;SDS011;4076;48.076;9.118;2023-04-19T05:48:39;32.50;;;19.40;;
8066;SDS011;4076;48.076;9.118;2023-04-19T05:51:04;28.67;;;21.80;;
8066;SDS011;4076;48.076;9.118;2023-04-19T05:53:30;27.93;;;16.70;;
8066;SDS011;4076;48.076;9.118;2023-04-19T05:55:56;27.57;;;19.40;;
8066;SDS011;4076;48.076;9.118;2023-04-19T05:58:22;24.80;;;16.57;;
8066;SDS011;4076;48.076;9.118;2023-04-19T06:00:49;21.93;;;15.40;;
8066;SDS011;4076;48.076;9.118;2023-04-19T06:03:15;21.33;;;13.63;;
8066;SDS011;4076;48.076;9.118;2023-04-19T06:05:41;21.40;;;14.30;;
8066;SDS011;4076;48.076;9.118;2023-04-19T06:08:07;20.50;;;14.23;;
8066;SDS011;4076;48.076;9.118;2023-04-19T06:10:33;21.87;;;15.93;;
8066;SDS011;4076;48.076;9.118;2023-04-19T06:13:00;21.63;;;15.00;;
8066;SDS011;4076;48.076;9.118;2023-04-19T06:15:26;20.90;;;14.07;;
8066;SDS011;4076;48.076;9.118;2023-04-19T06:17:51;20.97;;;13.73;;
8066;SDS011;4076;48.076;9.118;2023-04-19T06:20:17;28.20;;;17.03;;
8066;SDS011;4076;48.076;9.118;2023-04-19T06:22:47;26.17;;;15.77;;
8066;SDS011;4076;48.076;9.118;2023-04-19T06:25:13;22.73;;;16.27;;
8066;SDS011;4076;48.076;9.118;2023-04-19T06:27:39;21.77;;;15.63;;
8066;SDS011;4076;48.076;9.118;2023-04-19T06:30:05;25.30;;;16.97;;
8066;SDS011;4076;48.076;9.118;2023-04-19T06:32:31;21.37;;;15.90;;
8066;SDS011;4076;48.076;9.118;2023-04-19T06:34:56;18.87;;;13.40;;
8066;SDS011;4076;48.076;9.118;2023-04-19T06:37:22;26.63;;;15.60;;
8066;SDS011;4076;48.076;9.118;2023-04-19T06:39:48;25.77;;;15.23;;
8066;SDS011;4076;48.076;9.118;2023-04-19T06:42:13;21.70;;;14.20;;
8066;SDS011;4076;48.076;9.118;2023-04-19T06:44:39;23.07;;;15.20;;
8066;SDS011;4076;48.076;9.118;2023-04-19T06:47:05;21.30;;;15.00;;
8066;SDS011;4076;48.076;9.118;2023-04-19T06:49:30;24.40;;;16.43;;
8066;SDS011;4076;48.076;9.118;2023-04-19T06:51:57;26.87;;;15.73;;
8066;SDS011;4076;48.076;9.118;2023-04-19T06:54:23;25.30;;;16.40;;
8066;SDS011;4076;48.076;9.118;2023-04-19T06:56:49;25.40;;;15.37;;
8066;SDS011;4076;48.076;9.118;2023-04-19T06:59:16;22.90;;;15.17;;
8066;SDS011;4076;48.076;9.118;2023-04-19T07:01:44;20.63;;;15.13;;
8066;SDS011;4076;48.076;9.118;2023-04-19T07:04:10;21.60;;;15.07;;
8066;SDS011;4076;48.076;9.118;2023-04-19T07:06:36;24.50;;;15.20;;
8066;SDS011;4076;48.076;9.118;2023-04-19T07:09:03;21.23;;;14.17;;
8066;SDS011;4076;48.076;9.118;2023-04-19T07:11:30;26.70;;;17.00;;
8066;SDS011;4076;48.076;9.118;2023-04-19T07:13:56;23.27;;;14.70;;
8066;SDS011;4076;48.076;9.118;2023-04-19T07:16:22;21.47;;;15.13;;
8066;SDS011;4076;48.076;9.118;2023-04-19T07:18:47;25.50;;;16.97;;
8066;SDS011;4076;48.076;9.118;2023-04-19T07:21:13;28.97;;;17.17;;
8066;SDS011;4076;48.076;9.118;2023-04-19T07:23:39;25.13;;;17.40;;
8066;SDS011;4076;48.076;9.118;2023-04-19T07:26:05;29.77;;;16.93;;
8066;SDS011;4076;48.076;9.118;2023-04-19T07:28:31;26.20;;;16.10;;
8066;SDS011;4076;48.076;9.118;2023-04-19T07:30:57;24.10;;;17.80;;
8066;SDS011;4076;48.076;9.118;2023-04-19T07:33:23;29.93;;;20.07;;
8066;SDS011;4076;48.076;9.118;2023-04-19T07:35:49;25.00;;;17.30;;
8066;SDS011;4076;48.076;9.118;2023-04-19T07:38:15;25.63;;;17.47;;
8066;SDS011;4076;48.076;9.118;2023-04-19T07:40:41;26.70;;;17.33;;
8066;SDS011;4076;48.076;9.118;2023-04-19T07:43:07;25.13;;;16.73;;
8066;SDS011;4076;48.076;9.118;2023-04-19T07:45:32;32.20;;;18.70;;
8066;SDS011;4076;48.076;9.118;2023-04-19T07:48:00;27.40;;;17.70;;
8066;SDS011;4076;48.076;9.118;2023-04-19T07:50:25;25.40;;;17.03;;
8066;SDS011;4076;48.076;9.118;2023-04-19T07:52:51;26.63;;;15.43;;
8066;SDS011;4076;48.076;9.118;2023-04-19T07:55:17;25.37;;;18.47;;
8066;SDS011;4076;48.076;9.118;2023-04-19T07:57:43;19.87;;;12.90;;
8066;SDS011;4076;48.076;9.118;2023-04-19T08:00:12;29.97;;;19.77;;
8066;SDS011;4076;48.076;9.118;2023-04-19T08:02:45;28.47;;;19.80;;
8066;SDS011;4076;48.076;9.118;2023-04-19T08:05:11;27.30;;;17.77;;
8066;SDS011;4076;48.076;9.118;2023-04-19T08:07:38;26.83;;;17.13;;
8066;SDS011;4076;48.076;9.118;2023-04-19T08:10:05;31.00;;;18.60;;
8066;SDS011;4076;48.076;9.118;2023-04-19T08:12:31;25.53;;;19.93;;
8066;SDS011;4076;48.076;9.118;2023-04-19T08:14:57;30.50;;;18.97;;
8066;SDS011;4076;48.076;9.118;2023-04-19T08:17:23;28.90;;;18.20;;
8066;SDS011;4076;48.076;9.118;2023-04-19T08:19:49;33.53;;;24.23;;
8066;SDS011;4076;48.076;9.118;2023-04-19T08:22:15;32.53;;;22.00;;
8066;SDS011;4076;48.076;9.118;2023-04-19T08:24:42;28.07;;;18.20;;
8066;SDS011;4076;48.076;9.118;2023-04-19T08:27:08;27.40;;;18.77;;
8066;SDS011;4076;48.076;9.118;2023-04-19T08:29:35;24.53;;;17.60;;
8066;SDS011;4076;48.076;9.118;2023-04-19T08:32:01;28.03;;;17.73;;
8066;SDS011;4076;48.076;9.118;2023-04-19T08:34:27;26.53;;;16.57;;
8066;SDS011;4076;48.076;9.118;2023-04-19T08:36:52;24.83;;;15.90;;
8066;SDS011;4076;48.076;9.118;2023-04-19T08:39:18;21.87;;;13.93;;
8066;SDS011;4076;48.076;9.118;2023-04-19T08:41:44;25.60;;;17.07;;
8066;SDS011;4076;48.076;9.118;2023-04-19T08:44:10;27.70;;;18.70;;
8066;SDS011;4076;48.076;9.118;2023-04-19T08:46:37;20.67;;;15.13;;
8066;SDS011;4076;48.076;9.118;2023-04-19T08:49:03;22.27;;;14.50;;
8066;SDS011;4076;48.076;9.118;2023-04-19T08:51:30;20.23;;;13.73;;
8066;SDS011;4076;48.076;9.118;2023-04-19T08:53:57;19.90;;;13.30;;
8066;SDS011;4076;48.076;9.118;2023-04-19T08:56:23;23.23;;;16.90;;
8066;SDS011;4076;48.076;9.118;2023-04-19T08:58:50;25.03;;;15.90;;
8066;SDS011;4076;48.076;9.118;2023-04-19T09:01:16;23.43;;;13.90;;
8066;SDS011;4076;48.076;9.118;2023-04-19T09:03:42;23.17;;;15.63;;
8066;SDS011;4076;48.076;9.118;2023-04-19T09:06:11;21.33;;;14.80;;
8066;SDS011;4076;48.076;9.118;2023-04-19T09:08:38;26.60;;;15.50;;
8066;SDS011;4076;48.076;9.118;2023-04-19T09:11:04;19.80;;;13.70;;
8066;SDS011;4076;48.076;9.118;2023-04-19T09:13:30;24.97;;;15.23;;
8066;SDS011;4076;48.076;9.118;2023-04-19T09:15:57;22.80;;;15.10;;
8066;SDS011;4076;48.076;9.118;2023-04-19T09:18:24;23.07;;;14.97;;
8066;SDS011;4076;48.076;9.118;2023-04-19T09:20:51;23.43;;;13.83;;
8066;SDS011;4076;48.076;9.118;2023-04-19T09:23:24;24.50;;;17.10;;
8066;SDS011;4076;48.076;9.118;2023-04-19T09:28:27;20.43;;;16.13;;
8066;SDS011;4076;48.076;9.118;2023-04-19T09:30:53;20.40;;;13.50;;
8066;SDS011;4076;48.076;9.118;2023-04-19T09:33:32;22.10;;;14.23;;
8066;SDS011;4076;48.076;9.118;2023-04-19T09:35:59;22.17;;;14.10;;
8066;SDS011;4076;48.076;9.118;2023-04-19T09:38:25;19.80;;;14.83;;
8066;SDS011;4076;48.076;9.118;2023-04-19T09:40:51;17.50;;;11.77;;
8066;SDS011;4076;48.076;9.118;2023-04-19T09:43:22;19.50;;;12.37;;
8066;SDS011;4076;48.076;9.118;2023-04-19T09:45:49;22.97;;;17.20;;
8066;SDS011;4076;48.076;9.118;2023-04-19T09:48:15;22.77;;;16.03;;
8066;SDS011;4076;48.076;9.118;2023-04-19T09:50:51;22.57;;;17.20;;
8066;SDS011;4076;48.076;9.118;2023-04-19T09:53:18;23.80;;;16.10;;
8066;SDS011;4076;48.076;9.118;2023-04-19T09:55:45;25.33;;;15.60;;
8066;SDS011;4076;48.076;9.118;2023-04-19T09:58:17;21.20;;;15.47;;
8066;SDS011;4076;48.076;9.118;2023-04-19T10:00:47;20.23;;;12.57;;
8066;SDS011;4076;48.076;9.118;2023-04-19T10:03:14;20.77;;;12.67;;
8066;SDS011;4076;48.076;9.118;2023-04-19T10:05:41;17.60;;;12.47;;
8066;SDS011;4076;48.076;9.118;2023-04-19T10:08:09;17.77;;;14.37;;
8066;SDS011;4076;48.076;9.118;2023-04-19T10:10:36;24.30;;;14.83;;
8066;SDS011;4076;48.076;9.118;2023-04-19T10:13:04;19.70;;;13.83;;
8066;SDS011;4076;48.076;9.118;2023-04-19T10:15:33;20.93;;;14.40;;
8066;SDS011;4076;48.076;9.118;2023-04-19T10:18:01;25.30;;;15.47;;
8066;SDS011;4076;48.076;9.118;2023-04-19T10:21:05;20.77;;;12.93;;
8066;SDS011;4076;48.076;9.118;2023-04-19T10:23:25;19.43;;;13.77;;
8066;SDS011;4076;48.076;9.118;2023-04-19T10:25:55;16.23;;;12.37;;
8066;SDS011;4076;48.076;9.118;2023-04-19T10:28:21;14.93;;;11.00;;
8066;SDS011;4076;48.076;9.118;2023-04-19T10:31:00;14.90;;;12.20;;
8066;SDS011;4076;48.076;9.118;2023-04-19T10:33:33;15.90;;;11.93;;
8066;SDS011;4076;48.076;9.118;2023-04-19T10:36:00;12.37;;;9.17;;
8066;SDS011;4076;48.076;9.118;2023-04-19T10:38:37;22.03;;;12.80;;
8066;SDS011;4076;48.076;9.118;2023-04-19T10:41:07;17.80;;;11.90;;
8066;SDS011;4076;48.076;9.118;2023-04-19T10:43:38;15.47;;;10.07;;
8066;SDS011;4076;48.076;9.118;2023-04-19T10:46:46;19.50;;;14.13;;
8066;SDS011;4076;48.076;9.118;2023-04-19T10:48:57;15.17;;;11.97;;
8066;SDS011;4076;48.076;9.118;2023-04-19T10:51:27;15.00;;;10.90;;
8066;SDS011;4076;48.076;9.118;2023-04-19T11:04:01;13.30;;;8.47;;
8066;SDS011;4076;48.076;9.118;2023-04-19T11:06:26;12.97;;;9.27;;
8066;SDS011;4076;48.076;9.118;2023-04-19T11:08:52;13.00;;;9.30;;
8066;SDS011;4076;48.076;9.118;2023-04-19T11:11:19;16.67;;;10.27;;
8066;SDS011;4076;48.076;9.118;2023-04-19T11:13:48;11.77;;;8.03;;
8066;SDS011;4076;48.076;9.118;2023-04-19T11:16:14;12.60;;;9.30;;
8066;SDS011;4076;48.076;9.118;2023-04-19T11:18:40;11.50;;;9.10;;
8066;SDS011;4076;48.076;9.118;2023-04-19T11:21:06;13.30;;;8.93;;
8066;SDS011;4076;48.076;9.118;2023-04-19T11:23:36;13.40;;;9.73;;
8066;SDS011;4076;48.076;9.118;2023-04-19T11:26:01;17.70;;;10.27;;
8066;SDS011;4076;48.076;9.118;2023-04-19T11:28:27;10.53;;;8.70;;
8066;SDS011;4076;48.076;9.118;2023-04-19T11:30:53;12.67;;;8.80;;
8066;SDS011;4076;48.076;9.118;2023-04-19T11:33:20;18.00;;;10.07;;
8066;SDS011;4076;48.076;9.118;2023-04-19T11:35:49;12.53;;;9.87;;
8066;SDS011;4076;48.076;9.118;2023-04-19T11:38:15;16.20;;;13.33;;
8066;SDS011;4076;48.076;9.118;2023-04-19T11:40:41;15.70;;;12.03;;
8066;SDS011;4076;48.076;9.118;2023-04-19T11:43:06;13.00;;;9.23;;
8066;SDS011;4076;48.076;9.118;2023-04-19T11:45:33;13.53;;;8.97;;
8066;SDS011;4076;48.076;9.118;2023-04-19T11:48:00;10.93;;;6.83;;
8066;SDS011;4076;48.076;9.118;2023-04-19T11:55:50;11.70;;;7.50;;
8066;SDS011;4076;48.076;9.118;2023-04-19T11:58:27;8.47;;;6.30;;
8066;SDS011;4076;48.076;9.118;2023-04-19T12:00:56;11.10;;;9.70;;
8066;SDS011;4076;48.076;9.118;2023-04-19T12:03:30;8.67;;;6.73;;
8066;SDS011;4076;48.076;9.118;2023-04-19T12:05:56;11.67;;;7.70;;
8066;SDS011;4076;48.076;9.118;2023-04-19T12:08:33;8.10;;;5.60;;
8066;SDS011;4076;48.076;9.118;2023-04-19T12:11:04;9.67;;;7.60;;
8066;SDS011;4076;48.076;9.118;2023-04-19T12:13:30;9.10;;;7.37;;
8066;SDS011;4076;48.076;9.118;2023-04-19T12:15:56;10.13;;;7.43;;
8066;SDS011;4076;48.076;9.118;2023-04-19T12:18:22;10.00;;;7.37;;
8066;SDS011;4076;48.076;9.118;2023-04-19T12:20:49;9.70;;;7.20;;
8066;SDS011;4076;48.076;9.118;2023-04-19T12:23:16;11.73;;;8.50;;
8066;SDS011;4076;48.076;9.118;2023-04-19T12:25:43;9.53;;;6.20;;
8066;SDS011;4076;48.076;9.118;2023-04-19T12:28:10;9.90;;;7.53;;
8066;SDS011;4076;48.076;9.118;2023-04-19T12:30:37;14.80;;;8.27;;
8066;SDS011;4076;48.076;9.118;2023-04-19T12:33:03;14.07;;;8.70;;
8066;SDS011;4076;48.076;9.118;2023-04-19T12:35:30;9.73;;;6.40;;
8066;SDS011;4076;48.076;9.118;2023-04-19T12:37:56;7.47;;;6.23;;
8066;SDS011;4076;48.076;9.118;2023-04-19T12:40:22;7.70;;;6.13;;
8066;SDS011;4076;48.076;9.118;2023-04-19T12:42:49;7.07;;;5.07;;
8066;SDS011;4076;48.076;9.118;2023-04-19T12:45:16;7.10;;;5.70;;
8066;SDS011;4076;48.076;9.118;2023-04-19T12:47:42;6.67;;;5.70;;
8066;SDS011;4076;48.076;9.118;2023-04-19T12:50:09;9.90;;;7.67;;
8066;SDS011;4076;48.076;9.118;2023-04-19T12:52:36;7.90;;;5.30;;
8066;SDS011;4076;48.076;9.118;2023-04-19T12:55:02;7.87;;;5.63;;
8066;SDS011;4076;48.076;9.118;2023-04-19T12:57:28;7.97;;;4.90;;
8066;SDS011;4076;48.076;9.118;2023-04-19T12:59:54;9.83;;;6.40;;
8066;SDS011;4076;48.076;9.118;2023-04-19T13:02:20;8.73;;;6.40;;
8066;SDS011;4076;48.076;9.118;2023-04-19T13:04:45;7.10;;;4.57;;
8066;SDS011;4076;48.076;9.118;2023-04-19T13:07:11;9.70;;;4.80;;
8066;SDS011;4076;48.076;9.118;2023-04-19T13:09:37;7.87;;;4.80;;
8066;SDS011;4076;48.076;9.118;2023-04-19T13:12:05;8.93;;;6.87;;
8066;SDS011;4076;48.076;9.118;2023-04-19T13:14:31;7.63;;;5.00;;
8066;SDS011;4076;48.076;9.118;2023-04-19T13:16:57;7.77;;;5.30;;
8066;SDS011;4076;48.076;9.118;2023-04-19T13:19:23;10.20;;;6.50;;
8066;SDS011;4076;48.076;9.118;2023-04-19T13:21:49;7.60;;;5.37;;
8066;SDS011;4076;48.076;9.118;2023-04-19T13:24:15;5.10;;;3.83;;
8066;SDS011;4076;48.076;9.118;2023-04-19T13:26:40;7.07;;;4.70;;
8066;SDS011;4076;48.076;9.118;2023-04-19T13:29:06;6.70;;;4.50;;
8066;SDS011;4076;48.076;9.118;2023-04-19T13:31:34;6.27;;;4.47;;
8066;SDS011;4076;48.076;9.118;2023-04-19T13:34:00;7.93;;;5.23;;
8066;SDS011;4076;48.076;9.118;2023-04-19T13:36:26;8.07;;;5.10;;
8066;SDS011;4076;48.076;9.118;2023-04-19T13:38:52;7.90;;;5.70;;
8066;SDS011;4076;48.076;9.118;2023-04-19T13:41:18;8.73;;;6.43;;
8066;SDS011;4076;48.076;9.118;2023-04-19T13:43:44;8.70;;;6.50;;
8066;SDS011;4076;48.076;9.118;2023-04-19T13:46:10;9.67;;;7.27;;
8066;SDS011;4076;48.076;9.118;2023-04-19T13:48:36;8.60;;;6.67;;
8066;SDS011;4076;48.076;9.118;2023-04-19T13:51:01;9.90;;;6.70;;
8066;SDS011;4076;48.076;9.118;2023-04-19T13:53:27;9.07;;;6.90;;
8066;SDS011;4076;48.076;9.118;2023-04-19T13:55:53;9.83;;;6.80;;
8066;SDS011;4076;48.076;9.118;2023-04-19T13:58:19;7.90;;;6.27;;
8066;SDS011;4076;48.076;9.118;2023-04-19T14:00:45;7.30;;;5.20;;
8066;SDS011;4076;48.076;9.118;2023-04-19T14:03:12;8.20;;;6.30;;
8066;SDS011;4076;48.076;9.118;2023-04-19T14:05:38;6.33;;;4.57;;
8066;SDS011;4076;48.076;9.118;2023-04-19T14:08:04;11.97;;;9.30;;
8066;SDS011;4076;48.076;9.118;2023-04-19T14:10:29;9.30;;;6.47;;
8066;SDS011;4076;48.076;9.118;2023-04-19T14:12:55;8.33;;;5.60;;
8066;SDS011;4076;48.076;9.118;2023-04-19T14:15:21;7.33;;;5.30;;
8066;SDS011;4076;48.076;9.118;2023-04-19T14:17:49;7.03;;;5.07;;
8066;SDS011;4076;48.076;9.118;2023-04-19T14:20:15;7.77;;;6.63;;
8066;SDS011;4076;48.076;9.118;2023-04-19T14:22:41;8.27;;;5.40;;
8066;SDS011;4076;48.076;9.118;2023-04-19T14:25:07;7.37;;;5.67;;
8066;SDS011;4076;48.076;9.118;2023-04-19T14:27:33;8.33;;;5.97;;
8066;SDS011;4076;48.076;9.118;2023-04-19T14:29:59;8.13;;;5.33;;
8066;SDS011;4076;48.076;9.118;2023-04-19T14:32:26;10.03;;;7.10;;
8066;SDS011;4076;48.076;9.118;2023-04-19T14:34:52;7.50;;;4.73;;
8066;SDS011;4076;48.076;9.118;2023-04-19T14:37:19;10.83;;;8.30;;
8066;SDS011;4076;48.076;9.118;2023-04-19T14:39:46;9.80;;;6.67;;
8066;SDS011;4076;48.076;9.118;2023-04-19T14:42:11;8.83;;;5.57;;
8066;SDS011;4076;48.076;9.118;2023-04-19T14:44:37;9.80;;;7.10;;
8066;SDS011;4076;48.076;9.118;2023-04-19T14:47:03;7.70;;;5.53;;
8066;SDS011;4076;48.076;9.118;2023-04-19T14:49:29;13.20;;;7.37;;
8066;SDS011;4076;48.076;9.118;2023-04-19T14:51:55;8.40;;;6.33;;
8066;SDS011;4076;48.076;9.118;2023-04-19T14:54:20;11.67;;;8.17;;
8066;SDS011;4076;48.076;9.118;2023-04-19T14:56:46;10.27;;;7.50;;
8066;SDS011;4076;48.076;9.118;2023-04-19T14:59:12;10.97;;;6.50;;
8066;SDS011;4076;48.076;9.118;2023-04-19T15:01:38;9.43;;;6.50;;
8066;SDS011;4076;48.076;9.118;2023-04-19T15:04:03;12.40;;;7.63;;
8066;SDS011;4076;48.076;9.118;2023-04-19T15:06:29;10.57;;;8.73;;